^^
Meteo Knjazevac Station Historical Data
Daily Summary for February 18, 2021 Units:  Both    English   Metric
Daily Weekly Monthly Yearly Custom
  High: Low: Average:
Temperature: 68.2 °F /  20.1 °C 63 °F /  17.2 °C 65 °F /  18.3 °C
Dew Point: 65.9 °F /  18.8 °C 62.6 °F /  17 °C 63.8 °F /  17.7 °C
Humidity: 99% 90% 96%
Wind Speed: 3mph /  4.8km/h - 0.7mph /  1.1km/h
Wind Gust: 7mph /  11.3km/h - -
Wind- - SW
Pressure: 29.89 in /  1012.1 hPa 29.88 in /  1011.7 hPa -
Precipitation: 0.00 in /  0 mm    
Historical Graphs
 
 
Tabular Data for February 18, 2021
Time Temperature Dew Point Pressure Wind Wind Speed Wind Gust Humidity Rainfall Rate (Hourly) solar Conditions
00:00 68.2 °F /  20.1 °C 65.2 °F /  18.4 °C 29.89in /  1012.1hPa SW 3mph /  4.8km/h 7mph /  11.3km/h 90% 0.00in /  0mm 0 W/m2
00:10 68.2 °F /  20.1 °C 65.1 °F /  18.4 °C 29.89in /  1012.1hPa SW 2mph /  3.2km/h 6mph /  9.7km/h 90% 0.00in /  0mm 0 W/m2
00:20 68 °F /  20 °C 65 °F /  18.3 °C 29.89in /  1012.1hPa SW 2mph /  3.2km/h 5mph /  8km/h 90% 0.00in /  0mm 0 W/m2
00:30 67.8 °F /  19.9 °C 65.1 °F /  18.4 °C 29.88in /  1011.7hPa South 2mph /  3.2km/h 6mph /  9.7km/h 91% 0.00in /  0mm 0 W/m2
00:40 67.5 °F /  19.7 °C 64.8 °F /  18.2 °C 29.88in /  1011.7hPa SSW 2mph /  3.2km/h 5mph /  8km/h 91% 0.00in /  0mm 0 W/m2
00:50 67.3 °F /  19.6 °C 64.6 °F /  18.1 °C 29.88in /  1011.7hPa South 1mph /  1.6km/h 3mph /  4.8km/h 91% 0.00in /  0mm 0 W/m2
01:00 67.1 °F /  19.5 °C 65 °F /  18.3 °C 29.88in /  1011.7hPa SW 1mph /  1.6km/h 2mph /  3.2km/h 93% 0.00in /  0mm 0 W/m2
01:10 66.9 °F /  19.4 °C 64.8 °F /  18.2 °C 29.88in /  1011.7hPa SSE 1mph /  1.6km/h 4mph /  6.4km/h 93% 0.00in /  0mm 0 W/m2
01:20 66.7 °F /  19.3 °C 64.7 °F /  18.2 °C 29.88in /  1011.7hPa Calm   3mph /  4.8km/h 93% 0.00in /  0mm 0 W/m2
01:30 66.4 °F /  19.1 °C 64.7 °F /  18.2 °C 29.88in /  1011.7hPa SW 1mph /  1.6km/h 5mph /  8km/h 94% 0.00in /  0mm 0 W/m2
01:40 66.3 °F /  19.1 °C 64.5 °F /  18.1 °C 29.88in /  1011.7hPa SW 2mph /  3.2km/h 5mph /  8km/h 94% 0.00in /  0mm 0 W/m2
01:50 66.2 °F /  19 °C 64.4 °F /  18 °C 29.88in /  1011.7hPa WSW 2mph /  3.2km/h 3mph /  4.8km/h 94% 0.00in /  0mm 0 W/m2
02:00 66.1 °F /  18.9 °C 64.3 °F /  17.9 °C 29.88in /  1011.7hPa SW 1mph /  1.6km/h 3mph /  4.8km/h 94% 0.00in /  0mm 0 W/m2
02:10 66 °F /  18.9 °C 64.5 °F /  18.1 °C 29.88in /  1011.7hPa Calm   2mph /  3.2km/h 95% 0.00in /  0mm 0 W/m2
02:20 65.8 °F /  18.8 °C 64.4 °F /  18 °C 29.88in /  1011.7hPa SSW 1mph /  1.6km/h 3mph /  4.8km/h 95% 0.00in /  0mm 0 W/m2
02:30 65.7 °F /  18.7 °C 64.2 °F /  17.9 °C 29.88in /  1011.7hPa SW 1mph /  1.6km/h 2mph /  3.2km/h 95% 0.00in /  0mm 0 W/m2
02:40 65.5 °F /  18.6 °C 64 °F /  17.8 °C 29.88in /  1011.7hPa South 1mph /  1.6km/h 3mph /  4.8km/h 95% 0.00in /  0mm 0 W/m2
02:50 65.2 °F /  18.4 °C 63.7 °F /  17.6 °C 29.88in /  1011.7hPa Calm   4mph /  6.4km/h 95% 0.00in /  0mm 0 W/m2
03:00 65.1 °F /  18.4 °C 63.7 °F /  17.6 °C 29.88in /  1011.7hPa SSW 1mph /  1.6km/h 2mph /  3.2km/h 95% 0.00in /  0mm 0 W/m2
03:10 64.9 °F /  18.3 °C 63.8 °F /  17.7 °C 29.88in /  1011.7hPa SW 1mph /  1.6km/h 2mph /  3.2km/h 96% 0.00in /  0mm 0 W/m2
03:20 64.8 °F /  18.2 °C 63.6 °F /  17.6 °C 29.88in /  1011.7hPa Calm   2mph /  3.2km/h 96% 0.00in /  0mm 0 W/m2
03:30 64.6 °F /  18.1 °C 63.4 °F /  17.4 °C 29.88in /  1011.7hPa SSW 1mph /  1.6km/h 2mph /  3.2km/h 96% 0.00in /  0mm 0 W/m2
03:40 64.4 °F /  18 °C 63.2 °F /  17.3 °C 29.88in /  1011.7hPa SW 1mph /  1.6km/h 3mph /  4.8km/h 96% 0.00in /  0mm 0 W/m2
03:50 64.2 °F /  17.9 °C 63.1 °F /  17.3 °C 29.88in /  1011.7hPa Calm   2mph /  3.2km/h 96% 0.00in /  0mm 0 W/m2
04:00 64 °F /  17.8 °C 62.9 °F /  17.2 °C 29.88in /  1011.7hPa Calm   2mph /  3.2km/h 96% 0.00in /  0mm 0 W/m2
04:10 63.9 °F /  17.7 °C 62.7 °F /  17.1 °C 29.88in /  1011.7hPa Calm   1mph /  1.6km/h 96% 0.00in /  0mm 0 W/m2
04:20 63.9 °F /  17.7 °C 62.7 °F /  17.1 °C 29.88in /  1011.7hPa Calm   2mph /  3.2km/h 96% 0.00in /  0mm 0 W/m2
04:30 63.7 °F /  17.6 °C 63.1 °F /  17.3 °C 29.88in /  1011.7hPa SW 1mph /  1.6km/h 2mph /  3.2km/h 98% 0.00in /  0mm 0 W/m2
04:40 63.5 °F /  17.5 °C 62.9 °F /  17.2 °C 29.88in /  1011.7hPa Calm   2mph /  3.2km/h 98% 0.00in /  0mm 0 W/m2
04:50 63.7 °F /  17.6 °C 63.1 °F /  17.3 °C 29.88in /  1011.7hPa Calm   2mph /  3.2km/h 98% 0.00in /  0mm 0 W/m2
05:00 63.6 °F /  17.6 °C 63 °F /  17.2 °C 29.88in /  1011.7hPa WNW 1mph /  1.6km/h 2mph /  3.2km/h 98% 0.00in /  0mm 0 W/m2
05:10 63.5 °F /  17.5 °C 62.9 °F /  17.2 °C 29.88in /  1011.7hPa West 1mph /  1.6km/h 2mph /  3.2km/h 98% 0.00in /  0mm 5 W/m2
05:20 63.3 °F /  17.4 °C 62.7 °F /  17.1 °C 29.89in /  1012.1hPa SW 1mph /  1.6km/h 2mph /  3.2km/h 98% 0.00in /  0mm 11 W/m2
05:30 63.1 °F /  17.3 °C 62.6 °F /  17 °C 29.89in /  1012.1hPa SSW 1mph /  1.6km/h 2mph /  3.2km/h 98% 0.00in /  0mm 20 W/m2
05:40 63.1 °F /  17.3 °C 62.6 °F /  17 °C 29.89in /  1012.1hPa SW 1mph /  1.6km/h 2mph /  3.2km/h 98% 0.00in /  0mm 30 W/m2
05:50 63.1 °F /  17.3 °C 62.6 °F /  17 °C 29.89in /  1012.1hPa Calm   2mph /  3.2km/h 98% 0.00in /  0mm 40 W/m2
06:00 63 °F /  17.2 °C 62.7 °F /  17.1 °C 29.89in /  1012.1hPa Calm   2mph /  3.2km/h 99% 0.00in /  0mm 52 W/m2
06:10 63 °F /  17.2 °C 62.7 °F /  17.1 °C 29.89in /  1012.1hPa Calm   2mph /  3.2km/h 99% 0.00in /  0mm 67 W/m2
06:20 63 °F /  17.2 °C 62.7 °F /  17.1 °C 29.89in /  1012.1hPa Calm   1mph /  1.6km/h 99% 0.00in /  0mm 81 W/m2
06:30 63.1 °F /  17.3 °C 62.9 °F /  17.2 °C 29.89in /  1012.1hPa Calm   2mph /  3.2km/h 99% 0.00in /  0mm 132 W/m2
06:40 63.1 °F /  17.3 °C 62.9 °F /  17.2 °C 29.89in /  1012.1hPa Calm   2mph /  3.2km/h 99% 0.00in /  0mm 162 W/m2
06:50 63.3 °F /  17.4 °C 63 °F /  17.2 °C 29.89in /  1012.1hPa Calm   2mph /  3.2km/h 99% 0.00in /  0mm 185 W/m2
07:00 63.5 °F /  17.5 °C 63.2 °F /  17.3 °C 29.89in /  1012.1hPa NW 1mph /  1.6km/h 2mph /  3.2km/h 99% 0.00in /  0mm 216 W/m2
07:10 63.7 °F /  17.6 °C 63.4 °F /  17.4 °C 29.89in /  1012.1hPa Calm   2mph /  3.2km/h 99% 0.00in /  0mm 245 W/m2
07:20 64.2 °F /  17.9 °C 63.9 °F /  17.7 °C 29.89in /  1012.1hPa Calm   2mph /  3.2km/h 99% 0.00in /  0mm 277 W/m2
07:30 64.6 °F /  18.1 °C 64.3 °F /  17.9 °C 29.89in /  1012.1hPa Calm   3mph /  4.8km/h 99% 0.00in /  0mm 310 W/m2
07:40 64.9 °F /  18.3 °C 64.7 °F /  18.2 °C 29.89in /  1012.1hPa NW 1mph /  1.6km/h 4mph /  6.4km/h 99% 0.00in /  0mm 342 W/m2
07:50 65.5 °F /  18.6 °C 65.2 °F /  18.4 °C 29.89in /  1012.1hPa North 1mph /  1.6km/h 3mph /  4.8km/h 99% 0.00in /  0mm 382 W/m2
08:00 65.8 °F /  18.8 °C 65.3 °F /  18.5 °C 29.89in /  1012.1hPa Calm   3mph /  4.8km/h 98% 0.00in /  0mm 418 W/m2
08:10 66.5 °F /  19.2 °C 65.9 °F /  18.8 °C 29.89in /  1012.1hPa South 1mph /  1.6km/h 4mph /  6.4km/h 98% 0.00in /  0mm 464 W/m2
Knjazevac, Serbia
Compliments of Weather Underground - 2 mb